createdAt,value
2023-02-05T00:00:23.226Z,6.32
2023-02-05T00:02:51.178Z,6.00
2023-02-05T00:05:18.916Z,6.07
2023-02-05T00:07:46.873Z,5.80
2023-02-05T00:10:14.728Z,6.63
2023-02-05T00:12:42.606Z,6.57
2023-02-05T00:15:11.031Z,6.38
2023-02-05T00:17:38.903Z,5.80
2023-02-05T00:20:07.213Z,5.90
2023-02-05T00:22:34.941Z,5.85
2023-02-05T00:25:02.687Z,4.60
2023-02-05T00:27:30.764Z,4.55
2023-02-05T00:29:58.599Z,4.25
2023-02-05T00:32:26.468Z,4.43
2023-02-05T00:34:54.285Z,3.85
2023-02-05T00:37:22.340Z,3.90
2023-02-05T00:39:50.137Z,3.90
2023-02-05T00:42:17.865Z,3.40
2023-02-05T00:44:45.556Z,3.85
2023-02-05T00:47:13.483Z,4.50
2023-02-05T00:49:41.366Z,3.72
2023-02-05T00:52:09.275Z,4.20
2023-02-05T00:54:37.200Z,4.22
2023-02-05T00:57:05.738Z,3.70
2023-02-05T00:59:33.893Z,3.90
2023-02-05T01:02:01.698Z,3.75
2023-02-05T01:04:29.536Z,3.80
2023-02-05T01:06:57.352Z,3.40
2023-02-05T01:09:25.289Z,3.53
2023-02-05T01:11:53.278Z,3.97
2023-02-05T01:14:21.261Z,3.55
2023-02-05T01:16:48.968Z,3.85
2023-02-05T01:19:16.673Z,3.60
2023-02-05T01:21:44.512Z,3.80
2023-02-05T01:24:12.301Z,3.83
2023-02-05T01:26:40.392Z,3.80
2023-02-05T01:29:09.194Z,4.28
2023-02-05T01:31:37.073Z,4.13
2023-02-05T01:34:04.964Z,4.10
2023-02-05T01:36:32.741Z,3.75
2023-02-05T01:39:00.524Z,3.83
2023-02-05T01:41:28.456Z,4.00
2023-02-05T01:44:14.041Z,3.83
2023-02-05T01:46:47.298Z,3.90
2023-02-05T01:49:40.750Z,4.03
2023-02-05T01:52:16.859Z,3.45
2023-02-05T01:54:49.081Z,4.15
2023-02-05T01:57:23.838Z,4.68
2023-02-05T01:59:52.123Z,4.85
2023-02-05T02:02:20.381Z,5.10
2023-02-05T02:04:55.167Z,4.82
2023-02-05T02:07:24.651Z,5.53
2023-02-05T02:09:54.778Z,4.53
2023-02-05T02:12:32.577Z,4.93
2023-02-05T02:15:08.416Z,5.03
2023-02-05T02:17:40.960Z,5.03
2023-02-05T02:20:14.713Z,5.22
2023-02-05T02:23:16.347Z,5.07
2023-02-05T02:25:43.997Z,5.05
2023-02-05T02:28:20.245Z,5.10
2023-02-05T02:31:33.306Z,4.68
2023-02-05T02:34:11.790Z,4.38
2023-02-05T02:37:07.685Z,3.90
2023-02-05T02:39:55.527Z,4.05
2023-02-05T02:42:35.271Z,4.00
2023-02-05T02:45:08.297Z,4.18
2023-02-05T02:47:48.899Z,4.10
2023-02-05T02:50:44.661Z,4.10
2023-02-05T02:53:42.992Z,3.97
2023-02-05T02:56:17.525Z,4.15
2023-02-05T02:58:48.609Z,4.47
2023-02-05T03:01:24.337Z,4.30
2023-02-05T03:03:58.843Z,4.18
2023-02-05T03:06:30.703Z,4.57
2023-02-05T03:09:07.413Z,4.63
2023-02-05T03:11:35.495Z,4.55
2023-02-05T03:14:03.647Z,4.50
2023-02-05T03:16:35.860Z,5.05
2023-02-05T03:19:06.260Z,5.10
2023-02-05T03:21:43.539Z,4.43
2023-02-05T03:24:12.502Z,5.57
2023-02-05T03:26:40.800Z,5.43
2023-02-05T03:29:21.366Z,5.13
2023-02-05T03:32:13.432Z,5.65
2023-02-05T03:35:04.428Z,5.10
2023-02-05T03:38:17.814Z,5.30
2023-02-05T03:41:05.835Z,5.07
2023-02-05T03:43:51.083Z,4.90
2023-02-05T03:47:02.213Z,4.10
2023-02-05T03:50:19.076Z,4.50
2023-02-05T03:53:12.902Z,4.28
2023-02-05T03:55:48.723Z,4.68
2023-02-05T03:58:43.542Z,4.68
2023-02-05T04:01:13.131Z,4.50
2023-02-05T04:06:13.083Z,4.75
2023-02-05T04:08:43.965Z,5.15
2023-02-05T04:11:12.607Z,4.75
2023-02-05T04:13:41.043Z,5.18
2023-02-05T04:16:11.649Z,5.35
2023-02-05T04:18:39.814Z,5.00
2023-02-05T04:21:08.008Z,4.70
2023-02-05T04:23:39.371Z,4.75
2023-02-05T04:26:08.499Z,5.00
2023-02-05T04:28:43.039Z,4.93
2023-02-05T04:31:12.409Z,4.85
2023-02-05T04:33:41.980Z,4.68
2023-02-05T04:36:12.188Z,5.50
2023-02-05T04:38:40.480Z,4.80
2023-02-05T04:41:08.797Z,5.20
2023-02-05T04:43:36.709Z,5.03
2023-02-05T04:46:10.123Z,5.30
2023-02-05T04:48:38.892Z,4.80
2023-02-05T04:51:12.036Z,4.85
2023-02-05T04:53:40.685Z,4.95
2023-02-05T04:56:11.863Z,4.85
2023-02-05T04:58:40.520Z,5.15
2023-02-05T05:01:19.674Z,4.85
2023-02-05T05:03:48.305Z,4.97
2023-02-05T05:06:18.015Z,4.40
2023-02-05T05:08:46.162Z,4.90
2023-02-05T05:11:17.443Z,5.20
2023-02-05T05:13:46.176Z,4.80
2023-02-05T05:16:14.439Z,4.78
2023-02-05T05:18:42.280Z,4.80
2023-02-05T05:21:10.694Z,5.00
2023-02-05T05:23:38.972Z,5.00
2023-02-05T05:26:09.724Z,5.13
2023-02-05T05:28:37.885Z,3.57
2023-02-05T05:31:11.373Z,6.65
2023-02-05T05:33:39.281Z,5.40
2023-02-05T05:36:07.829Z,5.68
2023-02-05T05:38:35.939Z,5.15
2023-02-05T05:41:23.992Z,5.20
2023-02-05T05:43:54.309Z,4.70
2023-02-05T05:46:25.859Z,5.10
2023-02-05T05:51:25.551Z,4.80
2023-02-05T05:53:54.117Z,5.28
2023-02-05T05:56:22.401Z,4.90
2023-02-05T05:58:50.407Z,5.13
2023-02-05T06:01:21.969Z,5.13
2023-02-05T06:06:18.008Z,4.65
2023-02-05T06:08:45.693Z,5.90
2023-02-05T06:11:13.579Z,5.25
2023-02-05T06:13:41.813Z,5.30
2023-02-05T06:16:09.769Z,5.15
2023-02-05T06:18:37.600Z,4.80
2023-02-05T06:21:05.916Z,5.70
2023-02-05T06:23:34.528Z,5.63
2023-02-05T06:26:02.624Z,5.70
2023-02-05T06:28:30.432Z,5.13
2023-02-05T06:30:58.283Z,4.72
2023-02-05T06:33:26.124Z,4.50
2023-02-05T06:35:53.846Z,4.60
2023-02-05T06:38:21.554Z,4.40
2023-02-05T06:40:49.513Z,4.10
2023-02-05T06:43:17.454Z,4.97
2023-02-05T06:45:45.223Z,5.60
2023-02-05T06:48:13.113Z,6.40
2023-02-05T06:50:41.017Z,6.25
2023-02-05T06:53:10.534Z,5.20
2023-02-05T06:55:39.896Z,4.60
2023-02-05T06:58:07.898Z,6.07
2023-02-05T07:00:36.348Z,5.53
2023-02-05T07:03:04.403Z,4.38
2023-02-05T07:05:34.677Z,5.55
2023-02-05T07:08:04.155Z,5.72
2023-02-05T07:10:32.016Z,6.30
2023-02-05T07:12:59.714Z,6.07
2023-02-05T07:15:27.411Z,6.82
2023-02-05T07:17:55.438Z,6.45
2023-02-05T07:20:23.539Z,6.10
2023-02-05T07:22:51.941Z,6.18
2023-02-05T07:25:19.836Z,5.60
2023-02-05T07:27:47.585Z,6.28
2023-02-05T07:30:15.849Z,6.45
2023-02-05T07:32:43.607Z,7.07
2023-02-05T07:35:11.474Z,5.80
2023-02-05T07:37:39.515Z,6.60
2023-02-05T07:40:08.876Z,6.97
2023-02-05T07:42:36.625Z,7.55
2023-02-05T07:45:05.587Z,7.30
2023-02-05T07:47:33.465Z,7.28
2023-02-05T07:50:02.420Z,7.80
2023-02-05T07:52:30.223Z,6.75
2023-02-05T07:54:57.960Z,6.63
2023-02-05T07:57:26.706Z,6.35
2023-02-05T07:59:54.654Z,7.22
2023-02-05T08:02:22.446Z,7.18
2023-02-05T08:04:50.251Z,7.10
2023-02-05T08:07:18.072Z,7.85
2023-02-05T08:09:45.998Z,7.85
2023-02-05T08:12:13.881Z,7.38
2023-02-05T08:14:41.601Z,7.90
2023-02-05T08:17:09.413Z,7.90
2023-02-05T08:19:37.544Z,7.03
2023-02-05T08:22:05.471Z,7.43
2023-02-05T08:24:33.313Z,6.60
2023-02-05T08:27:01.763Z,6.10
2023-02-05T08:29:29.752Z,6.22
2023-02-05T08:31:57.538Z,5.90
2023-02-05T08:34:25.313Z,5.88
2023-02-05T08:36:53.003Z,6.13
2023-02-05T08:39:20.993Z,5.88
2023-02-05T08:41:49.060Z,5.85
2023-02-05T08:44:16.775Z,5.80
2023-02-05T08:46:50.054Z,5.93
2023-02-05T08:49:18.782Z,5.57
2023-02-05T08:52:06.461Z,5.43
2023-02-05T08:54:54.144Z,5.72
2023-02-05T08:57:21.970Z,5.40
2023-02-05T08:59:49.778Z,4.95
2023-02-05T09:02:17.536Z,5.35
2023-02-05T09:04:45.310Z,5.00
2023-02-05T09:07:13.078Z,4.93
2023-02-05T09:09:40.914Z,5.97
2023-02-05T09:12:10.712Z,5.50
2023-02-05T09:14:40.283Z,7.35
2023-02-05T09:17:10.268Z,6.75
2023-02-05T09:19:39.566Z,5.45
2023-02-05T09:22:08.608Z,5.32
2023-02-05T09:24:38.237Z,5.57
2023-02-05T09:27:06.736Z,5.57
2023-02-05T09:29:34.865Z,5.95
2023-02-05T09:32:02.608Z,5.90
2023-02-05T09:34:32.423Z,5.25
2023-02-05T09:37:00.355Z,4.78
2023-02-05T09:40:02.301Z,5.50
2023-02-05T09:42:42.822Z,5.47
2023-02-05T09:45:31.466Z,5.90
2023-02-05T09:48:19.415Z,4.97
2023-02-05T09:50:47.169Z,5.10
2023-02-05T09:53:21.436Z,5.45
2023-02-05T09:55:50.174Z,4.90
2023-02-05T09:58:31.025Z,5.32
2023-02-05T10:01:19.242Z,3.60
2023-02-05T10:03:48.756Z,4.72
2023-02-05T10:06:58.106Z,5.18
2023-02-05T10:09:35.738Z,4.80
2023-02-05T10:12:25.218Z,4.95
2023-02-05T10:15:14.624Z,5.18
2023-02-05T10:18:13.564Z,5.00
2023-02-05T10:21:31.263Z,5.13
2023-02-05T10:24:32.719Z,4.75
2023-02-05T10:27:23.281Z,4.95
2023-02-05T10:30:38.038Z,5.20
2023-02-05T10:33:38.600Z,5.07
2023-02-05T10:36:09.894Z,4.90
2023-02-05T10:38:44.820Z,5.07
2023-02-05T10:41:40.303Z,5.18
2023-02-05T10:44:38.511Z,5.30
2023-02-05T10:47:37.992Z,4.50
2023-02-05T10:50:21.754Z,4.88
2023-02-05T10:52:51.087Z,5.10
2023-02-05T10:55:19.744Z,4.45
2023-02-05T10:57:47.736Z,4.65
2023-02-05T11:00:20.751Z,5.10
2023-02-05T11:02:55.718Z,4.60
2023-02-05T11:05:39.121Z,5.00
2023-02-05T11:08:34.705Z,4.47
2023-02-05T11:11:03.532Z,4.28
2023-02-05T11:13:33.438Z,4.38
2023-02-05T11:16:06.679Z,4.95
2023-02-05T11:18:44.142Z,5.07
2023-02-05T11:21:12.852Z,5.22
2023-02-05T11:23:53.700Z,5.28
2023-02-05T11:26:25.380Z,5.50
2023-02-05T11:28:53.203Z,5.38
2023-02-05T11:31:32.170Z,6.15
2023-02-05T11:34:08.927Z,5.43
2023-02-05T11:36:52.363Z,6.00
2023-02-05T11:39:40.480Z,6.35
2023-02-05T11:42:23.787Z,6.53
2023-02-05T11:44:58.613Z,6.78
2023-02-05T11:47:36.118Z,8.20
2023-02-05T11:50:06.424Z,8.00
2023-02-05T11:52:37.970Z,7.50
2023-02-05T11:55:08.223Z,8.53
2023-02-05T11:57:41.890Z,7.50
2023-02-05T12:00:12.678Z,7.47
2023-02-05T12:02:44.197Z,7.75
2023-02-05T12:05:26.428Z,6.90
2023-02-05T12:08:13.926Z,7.20
2023-02-05T12:11:05.721Z,7.18
2023-02-05T12:16:42.687Z,6.47
2023-02-05T12:19:49.821Z,6.55
2023-02-05T12:22:20.315Z,7.03
2023-02-05T12:25:21.537Z,8.38
2023-02-05T12:28:22.829Z,8.50
2023-02-05T12:31:46.210Z,8.80
2023-02-05T12:34:54.232Z,8.70
2023-02-05T12:37:59.168Z,8.48
2023-02-05T12:41:02.662Z,9.00
2023-02-05T12:43:50.107Z,8.73
2023-02-05T12:46:48.036Z,8.95
2023-02-05T12:49:55.668Z,8.95
2023-02-05T12:52:50.028Z,9.63
2023-02-05T12:56:12.875Z,8.80
2023-02-05T12:58:47.761Z,8.63
2023-02-05T13:01:23.254Z,8.65
2023-02-05T13:04:39.978Z,9.15
2023-02-05T13:07:26.256Z,9.57
2023-02-05T13:10:19.687Z,11.63
2023-02-05T13:12:53.862Z,11.85
2023-02-05T13:15:36.718Z,10.07
2023-02-05T13:18:30.117Z,8.77
2023-02-05T13:21:25.965Z,8.65
2023-02-05T13:24:42.599Z,8.60
2023-02-05T13:27:45.615Z,8.65
2023-02-05T13:30:52.413Z,8.38
2023-02-05T13:33:20.185Z,8.00
2023-02-05T13:36:35.424Z,8.80
2023-02-05T13:39:34.583Z,8.27
2023-02-05T13:42:36.331Z,7.97
2023-02-05T13:45:44.168Z,9.70
2023-02-05T13:48:54.447Z,9.57
2023-02-05T13:52:09.825Z,9.85
2023-02-05T13:55:15.138Z,9.68
2023-02-05T13:58:13.148Z,10.57
2023-02-05T14:00:44.539Z,10.15
2023-02-05T14:07:08.481Z,9.27
2023-02-05T14:09:42.950Z,9.43
2023-02-05T14:12:24.075Z,9.32
2023-02-05T14:15:15.343Z,9.43
2023-02-05T14:17:43.039Z,10.10
2023-02-05T14:20:25.713Z,11.18
2023-02-05T14:23:00.957Z,9.35
2023-02-05T14:25:45.875Z,8.65
2023-02-05T14:28:16.949Z,8.73
2023-02-05T14:30:57.294Z,9.27
2023-02-05T14:33:45.530Z,12.70
2023-02-05T14:36:22.812Z,10.57
2023-02-05T14:39:06.763Z,10.27
2023-02-05T14:41:40.455Z,10.20
2023-02-05T14:44:19.959Z,9.05
2023-02-05T14:47:22.970Z,8.57
2023-02-05T14:49:53.148Z,7.70
2023-02-05T14:53:20.871Z,7.40
2023-02-05T14:55:50.268Z,7.65
2023-02-05T14:58:44.947Z,7.97
2023-02-05T15:01:35.558Z,8.02
2023-02-05T15:04:32.123Z,7.88
2023-02-05T15:07:27.031Z,7.68
2023-02-05T15:10:05.236Z,8.30
2023-02-05T15:13:18.746Z,7.72
2023-02-05T15:16:11.492Z,7.53
2023-02-05T15:18:52.613Z,8.32
2023-02-05T15:21:55.820Z,7.72
2023-02-05T15:24:27.641Z,6.95
2023-02-05T15:29:44.390Z,7.13
2023-02-05T15:32:33.915Z,7.18
2023-02-05T15:35:25.375Z,7.40
2023-02-05T15:38:18.340Z,8.00
2023-02-05T15:40:47.173Z,7.38
2023-02-05T15:43:21.985Z,8.45
2023-02-05T15:46:05.611Z,7.95
2023-02-05T15:48:38.575Z,8.25
2023-02-05T15:51:33.836Z,7.30
2023-02-05T15:54:05.308Z,7.30
2023-02-05T15:56:42.274Z,7.30
2023-02-05T15:59:10.098Z,7.28
2023-02-05T16:01:46.899Z,7.10
2023-02-05T16:04:39.290Z,7.60
2023-02-05T16:07:36.041Z,7.40
2023-02-05T16:10:22.081Z,7.35
2023-02-05T16:13:06.464Z,7.57
2023-02-05T16:15:57.352Z,8.18
2023-02-05T16:18:53.647Z,5.13
2023-02-05T16:21:37.584Z,7.25
2023-02-05T16:24:32.491Z,6.85
2023-02-05T16:27:45.462Z,7.30
2023-02-05T16:30:42.642Z,6.93
2023-02-05T16:33:41.067Z,7.72
2023-02-05T16:36:25.055Z,7.95
2023-02-05T16:38:57.198Z,9.15
2023-02-05T16:41:34.542Z,8.52
2023-02-05T16:44:08.293Z,8.82
2023-02-05T16:46:37.019Z,9.13
2023-02-05T16:49:23.257Z,10.63
2023-02-05T16:51:51.028Z,12.07
2023-02-05T16:54:18.739Z,10.93
2023-02-05T16:56:58.271Z,11.40
2023-02-05T16:59:35.854Z,11.38
2023-02-05T17:02:04.190Z,13.27
2023-02-05T17:04:38.829Z,12.25
2023-02-05T17:07:19.748Z,13.55
2023-02-05T17:12:32.924Z,13.50
2023-02-05T17:15:24.482Z,13.10
2023-02-05T17:18:27.788Z,19.35
2023-02-05T17:21:29.091Z,16.50
2023-02-05T17:23:59.915Z,13.05
2023-02-05T17:26:33.376Z,11.68
2023-02-05T17:29:06.044Z,9.48
2023-02-05T17:31:38.876Z,7.68
2023-02-05T17:34:07.672Z,8.25
2023-02-05T17:36:35.611Z,7.30
2023-02-05T17:39:03.548Z,6.35
2023-02-05T17:41:56.148Z,6.22
2023-02-05T17:44:25.661Z,6.72
2023-02-05T17:46:54.305Z,6.40
2023-02-05T17:49:22.088Z,7.57
2023-02-05T17:51:50.298Z,6.75
2023-02-05T17:54:25.600Z,8.05
2023-02-05T17:57:02.938Z,8.07
2023-02-05T17:59:30.952Z,8.27
2023-02-05T18:01:58.875Z,8.00
2023-02-05T18:04:26.782Z,8.20
2023-02-05T18:06:54.588Z,8.10
2023-02-05T18:09:22.545Z,7.25
2023-02-05T18:11:50.551Z,8.25
2023-02-05T18:14:18.439Z,7.63
2023-02-05T18:16:47.189Z,8.15
2023-02-05T18:19:15.136Z,7.15
2023-02-05T18:21:43.035Z,8.13
2023-02-05T18:24:11.321Z,7.78
2023-02-05T18:26:39.096Z,7.97
2023-02-05T18:29:07.154Z,6.25
2023-02-05T18:31:35.291Z,6.07
2023-02-05T18:34:05.091Z,7.05
2023-02-05T18:36:33.129Z,6.78
2023-02-05T18:39:01.352Z,5.50
2023-02-05T18:41:29.139Z,6.18
2023-02-05T18:43:57.791Z,5.95
2023-02-05T18:46:26.094Z,6.95
2023-02-05T18:48:55.175Z,7.03
2023-02-05T18:51:24.035Z,6.13
2023-02-05T18:53:52.620Z,6.28
2023-02-05T18:56:26.594Z,7.25
2023-02-05T18:59:03.020Z,6.97
2023-02-05T19:01:34.065Z,8.27
2023-02-05T19:04:09.105Z,8.10
2023-02-05T19:06:45.144Z,7.85
2023-02-05T19:09:13.000Z,7.18
2023-02-05T19:11:41.632Z,9.48
2023-02-05T19:14:13.632Z,8.05
2023-02-05T19:16:42.754Z,8.85
2023-02-05T19:19:17.366Z,9.95
2023-02-05T19:21:46.631Z,9.07
2023-02-05T19:24:14.814Z,10.23
2023-02-05T19:26:44.085Z,9.77
2023-02-05T19:29:18.596Z,10.00
2023-02-05T19:31:47.002Z,9.32
2023-02-05T19:34:16.103Z,9.48
2023-02-05T19:36:44.019Z,9.23
2023-02-05T19:39:19.227Z,8.63
2023-02-05T19:41:48.366Z,8.30
2023-02-05T19:44:17.474Z,7.75
2023-02-05T19:46:46.641Z,7.50
2023-02-05T19:49:19.523Z,7.68
2023-02-05T19:51:51.045Z,7.75
2023-02-05T19:54:21.569Z,9.13
2023-02-05T19:56:50.167Z,11.35
2023-02-05T19:59:18.232Z,11.45
2023-02-05T20:01:47.312Z,11.23
2023-02-05T20:04:24.735Z,8.93
2023-02-05T20:06:59.103Z,9.27
2023-02-05T20:09:28.320Z,9.63
2023-02-05T20:11:56.197Z,8.10
2023-02-05T20:14:24.346Z,8.45
2023-02-05T20:16:53.285Z,9.25
2023-02-05T20:19:21.652Z,9.45
2023-02-05T20:21:49.667Z,8.50
2023-02-05T20:24:17.572Z,7.57
2023-02-05T20:26:48.466Z,7.78
2023-02-05T20:29:35.505Z,7.32
2023-02-05T20:32:04.429Z,7.07
2023-02-05T20:34:36.022Z,6.57
2023-02-05T20:37:09.013Z,6.88
2023-02-05T20:39:43.897Z,6.32
2023-02-05T20:42:15.573Z,6.35
2023-02-05T20:44:44.225Z,6.40
2023-02-05T20:47:14.446Z,6.85
2023-02-05T20:49:42.866Z,5.03
2023-02-05T20:52:30.525Z,7.10
2023-02-05T20:54:58.655Z,7.40
2023-02-05T20:57:46.374Z,8.00
2023-02-05T21:00:14.839Z,6.90
2023-02-05T21:02:43.709Z,7.20
2023-02-05T21:05:12.913Z,6.60
2023-02-05T21:07:42.661Z,6.70
2023-02-05T21:10:11.223Z,6.15
2023-02-05T21:12:38.977Z,6.82
2023-02-05T21:15:07.466Z,6.65
2023-02-05T21:17:35.186Z,6.80
2023-02-05T21:20:04.920Z,6.82
2023-02-05T21:22:32.857Z,6.47
2023-02-05T21:25:01.415Z,5.78
2023-02-05T21:27:29.413Z,6.00
2023-02-05T21:29:57.223Z,5.68
2023-02-05T21:32:25.469Z,5.88
2023-02-05T21:34:53.377Z,5.68
2023-02-05T21:37:21.576Z,4.90
2023-02-05T21:39:50.908Z,4.85
2023-02-05T21:42:20.539Z,4.63
2023-02-05T21:44:50.958Z,5.03
2023-02-05T21:47:18.695Z,5.22
2023-02-05T21:49:47.665Z,4.35
2023-02-05T21:52:15.816Z,5.32
2023-02-05T21:54:43.519Z,4.53
2023-02-05T21:57:12.500Z,5.13
2023-02-05T21:59:40.517Z,4.70
2023-02-05T22:02:12.109Z,5.18
2023-02-05T22:04:40.144Z,4.72
2023-02-05T22:07:07.858Z,4.85
2023-02-05T22:09:37.701Z,4.70
2023-02-05T22:12:06.293Z,5.00
2023-02-05T22:14:35.574Z,4.70
2023-02-05T22:17:03.399Z,4.90
2023-02-05T22:19:31.121Z,4.95
2023-02-05T22:21:59.538Z,5.30
2023-02-05T22:24:27.257Z,5.35
2023-02-05T22:26:55.082Z,5.28
2023-02-05T22:29:23.128Z,4.50
2023-02-05T22:31:54.020Z,5.28
2023-02-05T22:34:22.522Z,4.60
2023-02-05T22:36:50.216Z,5.40
2023-02-05T22:39:17.995Z,5.50
2023-02-05T22:41:46.757Z,5.10
2023-02-05T22:44:14.465Z,5.70
2023-02-05T22:46:44.366Z,5.55
2023-02-05T22:49:15.400Z,5.70
2023-02-05T22:51:44.183Z,5.50
2023-02-05T22:54:14.794Z,5.50
2023-02-05T22:56:42.669Z,5.95
2023-02-05T22:59:10.427Z,5.75
2023-02-05T23:01:39.011Z,5.88
2023-02-05T23:04:09.225Z,6.10
2023-02-05T23:06:41.315Z,5.53
2023-02-05T23:09:16.260Z,5.80
2023-02-05T23:11:45.232Z,6.03
2023-02-05T23:14:16.211Z,6.07
2023-02-05T23:16:46.464Z,6.10
2023-02-05T23:19:18.974Z,6.25
2023-02-05T23:21:47.613Z,6.60
2023-02-05T23:24:16.179Z,6.85
2023-02-05T23:26:47.342Z,6.10
2023-02-05T23:29:16.612Z,6.47
2023-02-05T23:31:44.980Z,6.63
2023-02-05T23:34:13.378Z,6.90
2023-02-05T23:36:41.565Z,7.07
2023-02-05T23:39:09.583Z,6.57
2023-02-05T23:41:37.583Z,6.82
2023-02-05T23:44:18.133Z,6.60
2023-02-05T23:46:48.686Z,7.18
2023-02-05T23:49:21.712Z,7.72
2023-02-05T23:51:54.841Z,7.32
2023-02-05T23:54:24.098Z,7.60
2023-02-05T23:56:52.650Z,7.90
2023-02-05T23:59:20.561Z,7.45
